Terminal Aerodrome Forecast
Issued by NWS

Home | Current Version | Previous Version | Text Only | Print | Product List | Glossary On
Versions: 1 2 3 4 5 6 7 8 9 10 11 12 13
000
FTUS45 KABQ 291746
TAFTCC
TAF
KTCC 291746Z 2918/3018 08011KT P6SM SCT250
     FM292100 08011KT P6SM VCTS SCT070CB BKN120
      TEMPO 2922/2924 VRB15G25KT -TSRA BKN050CB
     FM300000 06014KT P6SM VCSH SCT080 BKN150
     FM300400 03011KT P6SM -SHRA BKN040
     FM301000 04009KT P6SM BKN025
     FM301600 07007KT P6SM SCT035 BKN050=

USA.gov is the U.S. government's official web portal to all federal, state and local government web resources and services.